sensor_id;sensor_type;location;lat;lon;timestamp;P1;durP1;ratioP1;P2;durP2;ratioP2
58412;SDS011;44209;52.952;6.790;2024-01-15T00:00:38;12.33;;;3.17;;
58412;SDS011;44209;52.952;6.790;2024-01-15T00:03:04;10.07;;;3.13;;
58412;SDS011;44209;52.952;6.790;2024-01-15T00:05:30;12.57;;;2.70;;
58412;SDS011;44209;52.952;6.790;2024-01-15T00:07:56;14.80;;;3.17;;
58412;SDS011;44209;52.952;6.790;2024-01-15T00:10:21;11.60;;;2.77;;
58412;SDS011;44209;52.952;6.790;2024-01-15T00:12:48;13.87;;;3.40;;
58412;SDS011;44209;52.952;6.790;2024-01-15T00:15:14;10.70;;;2.53;;
58412;SDS011;44209;52.952;6.790;2024-01-15T00:17:40;14.17;;;2.63;;
58412;SDS011;44209;52.952;6.790;2024-01-15T00:20:06;12.03;;;3.03;;
58412;SDS011;44209;52.952;6.790;2024-01-15T00:22:32;17.57;;;3.17;;
58412;SDS011;44209;52.952;6.790;2024-01-15T00:24:58;14.07;;;2.90;;
58412;SDS011;44209;52.952;6.790;2024-01-15T00:27:23;11.80;;;3.10;;
58412;SDS011;44209;52.952;6.790;2024-01-15T00:29:49;11.20;;;2.63;;
58412;SDS011;44209;52.952;6.790;2024-01-15T00:32:16;9.10;;;2.67;;
58412;SDS011;44209;52.952;6.790;2024-01-15T00:34:42;13.93;;;2.83;;
58412;SDS011;44209;52.952;6.790;2024-01-15T00:37:08;10.50;;;2.70;;
58412;SDS011;44209;52.952;6.790;2024-01-15T00:39:34;8.23;;;2.10;;
58412;SDS011;44209;52.952;6.790;2024-01-15T00:41:59;11.90;;;2.70;;
58412;SDS011;44209;52.952;6.790;2024-01-15T00:44:25;14.60;;;2.57;;
58412;SDS011;44209;52.952;6.790;2024-01-15T00:46:50;11.43;;;2.70;;
58412;SDS011;44209;52.952;6.790;2024-01-15T00:49:16;13.20;;;2.70;;
58412;SDS011;44209;52.952;6.790;2024-01-15T00:51:42;9.87;;;2.90;;
58412;SDS011;44209;52.952;6.790;2024-01-15T00:54:08;11.47;;;2.60;;
58412;SDS011;44209;52.952;6.790;2024-01-15T00:56:33;13.73;;;3.10;;
58412;SDS011;44209;52.952;6.790;2024-01-15T00:59:00;11.83;;;2.97;;
58412;SDS011;44209;52.952;6.790;2024-01-15T01:01:25;13.93;;;2.50;;
58412;SDS011;44209;52.952;6.790;2024-01-15T01:03:51;16.40;;;3.00;;
58412;SDS011;44209;52.952;6.790;2024-01-15T01:06:16;16.73;;;3.27;;
58412;SDS011;44209;52.952;6.790;2024-01-15T01:08:42;12.67;;;2.70;;
58412;SDS011;44209;52.952;6.790;2024-01-15T01:11:12;9.33;;;2.67;;
58412;SDS011;44209;52.952;6.790;2024-01-15T01:13:38;15.20;;;3.47;;
58412;SDS011;44209;52.952;6.790;2024-01-15T01:16:04;15.10;;;3.20;;
58412;SDS011;44209;52.952;6.790;2024-01-15T01:18:30;13.60;;;2.70;;
58412;SDS011;44209;52.952;6.790;2024-01-15T01:20:55;14.30;;;2.90;;
58412;SDS011;44209;52.952;6.790;2024-01-15T01:23:21;10.53;;;2.63;;
58412;SDS011;44209;52.952;6.790;2024-01-15T01:25:47;10.93;;;2.87;;
58412;SDS011;44209;52.952;6.790;2024-01-15T01:28:12;17.57;;;3.17;;
58412;SDS011;44209;52.952;6.790;2024-01-15T01:30:38;13.63;;;3.03;;
58412;SDS011;44209;52.952;6.790;2024-01-15T01:33:04;9.40;;;2.43;;
58412;SDS011;44209;52.952;6.790;2024-01-15T01:35:30;14.67;;;2.97;;
58412;SDS011;44209;52.952;6.790;2024-01-15T01:37:56;14.47;;;2.87;;
58412;SDS011;44209;52.952;6.790;2024-01-15T01:40:21;14.87;;;3.10;;
58412;SDS011;44209;52.952;6.790;2024-01-15T01:42:47;16.67;;;3.20;;
58412;SDS011;44209;52.952;6.790;2024-01-15T01:45:13;15.33;;;3.07;;
58412;SDS011;44209;52.952;6.790;2024-01-15T01:47:39;7.73;;;2.37;;
58412;SDS011;44209;52.952;6.790;2024-01-15T01:50:05;20.27;;;3.17;;
58412;SDS011;44209;52.952;6.790;2024-01-15T01:52:31;10.67;;;2.90;;
58412;SDS011;44209;52.952;6.790;2024-01-15T01:54:58;13.20;;;2.80;;
58412;SDS011;44209;52.952;6.790;2024-01-15T01:57:26;12.33;;;2.87;;
58412;SDS011;44209;52.952;6.790;2024-01-15T01:59:51;10.67;;;2.30;;
58412;SDS011;44209;52.952;6.790;2024-01-15T02:02:18;13.57;;;2.80;;
58412;SDS011;44209;52.952;6.790;2024-01-15T02:04:44;13.43;;;2.67;;
58412;SDS011;44209;52.952;6.790;2024-01-15T02:07:12;14.27;;;2.97;;
58412;SDS011;44209;52.952;6.790;2024-01-15T02:09:38;13.57;;;2.80;;
58412;SDS011;44209;52.952;6.790;2024-01-15T02:12:04;10.17;;;2.50;;
58412;SDS011;44209;52.952;6.790;2024-01-15T02:14:30;11.33;;;2.30;;
58412;SDS011;44209;52.952;6.790;2024-01-15T02:16:55;11.03;;;2.00;;
58412;SDS011;44209;52.952;6.790;2024-01-15T02:19:21;13.80;;;2.33;;
58412;SDS011;44209;52.952;6.790;2024-01-15T02:21:47;7.23;;;1.50;;
58412;SDS011;44209;52.952;6.790;2024-01-15T02:24:12;6.17;;;1.70;;
58412;SDS011;44209;52.952;6.790;2024-01-15T02:26:38;7.60;;;1.83;;
58412;SDS011;44209;52.952;6.790;2024-01-15T02:29:07;6.53;;;1.47;;
58412;SDS011;44209;52.952;6.790;2024-01-15T02:31:34;6.83;;;1.70;;
58412;SDS011;44209;52.952;6.790;2024-01-15T02:34:01;5.87;;;1.47;;
58412;SDS011;44209;52.952;6.790;2024-01-15T02:36:26;5.60;;;1.60;;
58412;SDS011;44209;52.952;6.790;2024-01-15T02:38:52;6.13;;;1.47;;
58412;SDS011;44209;52.952;6.790;2024-01-15T02:41:18;7.50;;;1.80;;
58412;SDS011;44209;52.952;6.790;2024-01-15T02:43:43;7.47;;;1.90;;
58412;SDS011;44209;52.952;6.790;2024-01-15T02:46:09;11.67;;;2.10;;
58412;SDS011;44209;52.952;6.790;2024-01-15T02:48:35;8.80;;;2.30;;
58412;SDS011;44209;52.952;6.790;2024-01-15T02:51:01;12.03;;;2.20;;
58412;SDS011;44209;52.952;6.790;2024-01-15T02:53:27;7.03;;;1.90;;
58412;SDS011;44209;52.952;6.790;2024-01-15T02:55:53;10.47;;;2.10;;
58412;SDS011;44209;52.952;6.790;2024-01-15T02:58:18;10.73;;;2.13;;
58412;SDS011;44209;52.952;6.790;2024-01-15T03:00:44;11.27;;;2.37;;
58412;SDS011;44209;52.952;6.790;2024-01-15T03:03:11;12.40;;;2.80;;
58412;SDS011;44209;52.952;6.790;2024-01-15T03:05:37;10.30;;;2.30;;
58412;SDS011;44209;52.952;6.790;2024-01-15T03:08:03;10.53;;;3.07;;
58412;SDS011;44209;52.952;6.790;2024-01-15T03:10:29;11.20;;;3.33;;
58412;SDS011;44209;52.952;6.790;2024-01-15T03:12:54;16.77;;;3.17;;
58412;SDS011;44209;52.952;6.790;2024-01-15T03:15:20;13.83;;;2.73;;
58412;SDS011;44209;52.952;6.790;2024-01-15T03:17:46;13.07;;;2.40;;
58412;SDS011;44209;52.952;6.790;2024-01-15T03:20:11;13.43;;;3.17;;
58412;SDS011;44209;52.952;6.790;2024-01-15T03:22:37;13.57;;;2.80;;
58412;SDS011;44209;52.952;6.790;2024-01-15T03:25:03;9.23;;;3.10;;
58412;SDS011;44209;52.952;6.790;2024-01-15T03:27:29;10.10;;;2.50;;
58412;SDS011;44209;52.952;6.790;2024-01-15T03:29:55;11.07;;;3.00;;
58412;SDS011;44209;52.952;6.790;2024-01-15T03:32:21;13.57;;;3.23;;
58412;SDS011;44209;52.952;6.790;2024-01-15T03:34:46;12.47;;;2.60;;
58412;SDS011;44209;52.952;6.790;2024-01-15T03:37:13;10.63;;;2.37;;
58412;SDS011;44209;52.952;6.790;2024-01-15T03:39:39;11.70;;;2.70;;
58412;SDS011;44209;52.952;6.790;2024-01-15T03:42:04;18.47;;;3.40;;
58412;SDS011;44209;52.952;6.790;2024-01-15T03:44:31;12.13;;;2.87;;
58412;SDS011;44209;52.952;6.790;2024-01-15T03:46:56;14.67;;;3.30;;
58412;SDS011;44209;52.952;6.790;2024-01-15T03:49:23;15.83;;;3.87;;
58412;SDS011;44209;52.952;6.790;2024-01-15T03:51:48;13.40;;;3.23;;
58412;SDS011;44209;52.952;6.790;2024-01-15T03:54:14;21.33;;;3.40;;
58412;SDS011;44209;52.952;6.790;2024-01-15T03:56:40;14.77;;;3.20;;
58412;SDS011;44209;52.952;6.790;2024-01-15T03:59:05;12.63;;;3.40;;
58412;SDS011;44209;52.952;6.790;2024-01-15T04:01:31;12.00;;;2.90;;
58412;SDS011;44209;52.952;6.790;2024-01-15T04:03:57;15.83;;;3.47;;
58412;SDS011;44209;52.952;6.790;2024-01-15T04:06:22;12.23;;;2.67;;
58412;SDS011;44209;52.952;6.790;2024-01-15T04:08:48;12.57;;;2.90;;
58412;SDS011;44209;52.952;6.790;2024-01-15T04:11:14;14.93;;;3.20;;
58412;SDS011;44209;52.952;6.790;2024-01-15T04:13:40;12.80;;;2.70;;
58412;SDS011;44209;52.952;6.790;2024-01-15T04:16:05;11.87;;;2.70;;
58412;SDS011;44209;52.952;6.790;2024-01-15T04:18:31;10.73;;;2.90;;
58412;SDS011;44209;52.952;6.790;2024-01-15T04:20:56;13.23;;;3.57;;
58412;SDS011;44209;52.952;6.790;2024-01-15T04:23:22;13.40;;;2.60;;
58412;SDS011;44209;52.952;6.790;2024-01-15T04:25:48;15.50;;;2.83;;
58412;SDS011;44209;52.952;6.790;2024-01-15T04:28:13;12.47;;;2.73;;
58412;SDS011;44209;52.952;6.790;2024-01-15T04:30:39;7.57;;;2.17;;
58412;SDS011;44209;52.952;6.790;2024-01-15T04:33:05;13.17;;;2.53;;
58412;SDS011;44209;52.952;6.790;2024-01-15T04:35:31;14.77;;;2.93;;
58412;SDS011;44209;52.952;6.790;2024-01-15T04:37:56;12.30;;;2.77;;
58412;SDS011;44209;52.952;6.790;2024-01-15T04:40:22;13.63;;;2.50;;
58412;SDS011;44209;52.952;6.790;2024-01-15T04:42:48;10.30;;;2.60;;
58412;SDS011;44209;52.952;6.790;2024-01-15T04:45:13;12.63;;;2.50;;
58412;SDS011;44209;52.952;6.790;2024-01-15T04:47:39;16.37;;;3.00;;
58412;SDS011;44209;52.952;6.790;2024-01-15T04:50:05;13.83;;;2.57;;
58412;SDS011;44209;52.952;6.790;2024-01-15T04:52:31;11.30;;;2.23;;
58412;SDS011;44209;52.952;6.790;2024-01-15T04:54:57;9.73;;;2.17;;
58412;SDS011;44209;52.952;6.790;2024-01-15T04:57:23;10.03;;;3.23;;
58412;SDS011;44209;52.952;6.790;2024-01-15T04:59:48;8.27;;;2.03;;
58412;SDS011;44209;52.952;6.790;2024-01-15T05:02:14;7.60;;;2.10;;
58412;SDS011;44209;52.952;6.790;2024-01-15T05:04:40;6.33;;;2.00;;
58412;SDS011;44209;52.952;6.790;2024-01-15T05:07:06;10.67;;;1.90;;
58412;SDS011;44209;52.952;6.790;2024-01-15T05:09:31;6.40;;;1.80;;
58412;SDS011;44209;52.952;6.790;2024-01-15T05:11:57;6.23;;;1.60;;
58412;SDS011;44209;52.952;6.790;2024-01-15T05:14:23;5.67;;;1.87;;
58412;SDS011;44209;52.952;6.790;2024-01-15T05:16:49;5.97;;;2.17;;
58412;SDS011;44209;52.952;6.790;2024-01-15T05:19:15;6.80;;;1.60;;
58412;SDS011;44209;52.952;6.790;2024-01-15T05:21:41;8.67;;;1.93;;
58412;SDS011;44209;52.952;6.790;2024-01-15T05:24:07;7.30;;;1.77;;
58412;SDS011;44209;52.952;6.790;2024-01-15T05:26:33;6.63;;;1.50;;
58412;SDS011;44209;52.952;6.790;2024-01-15T05:28:59;7.33;;;1.50;;
58412;SDS011;44209;52.952;6.790;2024-01-15T05:31:24;7.67;;;1.60;;
58412;SDS011;44209;52.952;6.790;2024-01-15T05:33:50;6.93;;;2.23;;
58412;SDS011;44209;52.952;6.790;2024-01-15T05:36:16;8.13;;;1.57;;
58412;SDS011;44209;52.952;6.790;2024-01-15T05:38:42;7.57;;;1.60;;
58412;SDS011;44209;52.952;6.790;2024-01-15T05:41:07;7.53;;;1.70;;
58412;SDS011;44209;52.952;6.790;2024-01-15T05:43:33;6.67;;;1.77;;
58412;SDS011;44209;52.952;6.790;2024-01-15T05:45:59;7.33;;;1.80;;
58412;SDS011;44209;52.952;6.790;2024-01-15T05:48:24;8.37;;;2.10;;
58412;SDS011;44209;52.952;6.790;2024-01-15T05:50:50;9.00;;;2.20;;
58412;SDS011;44209;52.952;6.790;2024-01-15T05:53:15;7.93;;;2.30;;
58412;SDS011;44209;52.952;6.790;2024-01-15T05:55:41;14.40;;;2.40;;
58412;SDS011;44209;52.952;6.790;2024-01-15T05:58:07;10.33;;;2.03;;
58412;SDS011;44209;52.952;6.790;2024-01-15T06:00:32;7.40;;;1.90;;
58412;SDS011;44209;52.952;6.790;2024-01-15T06:03:00;9.33;;;2.03;;
58412;SDS011;44209;52.952;6.790;2024-01-15T06:05:26;9.57;;;2.40;;
58412;SDS011;44209;52.952;6.790;2024-01-15T06:07:51;7.00;;;2.07;;
58412;SDS011;44209;52.952;6.790;2024-01-15T06:10:17;10.93;;;2.00;;
58412;SDS011;44209;52.952;6.790;2024-01-15T06:12:43;8.23;;;2.00;;
58412;SDS011;44209;52.952;6.790;2024-01-15T06:15:09;6.93;;;1.90;;
58412;SDS011;44209;52.952;6.790;2024-01-15T06:17:35;12.33;;;2.67;;
58412;SDS011;44209;52.952;6.790;2024-01-15T06:20:01;6.73;;;1.80;;
58412;SDS011;44209;52.952;6.790;2024-01-15T06:22:27;8.33;;;1.83;;
58412;SDS011;44209;52.952;6.790;2024-01-15T06:24:52;7.60;;;1.80;;
58412;SDS011;44209;52.952;6.790;2024-01-15T06:27:18;7.47;;;2.10;;
58412;SDS011;44209;52.952;6.790;2024-01-15T06:29:47;8.30;;;2.20;;
58412;SDS011;44209;52.952;6.790;2024-01-15T06:32:13;7.33;;;2.10;;
58412;SDS011;44209;52.952;6.790;2024-01-15T06:34:39;9.93;;;2.50;;
58412;SDS011;44209;52.952;6.790;2024-01-15T06:37:05;9.27;;;2.20;;
58412;SDS011;44209;52.952;6.790;2024-01-15T06:39:30;11.57;;;2.47;;
58412;SDS011;44209;52.952;6.790;2024-01-15T06:41:56;10.53;;;2.80;;
58412;SDS011;44209;52.952;6.790;2024-01-15T06:44:22;10.13;;;2.20;;
58412;SDS011;44209;52.952;6.790;2024-01-15T06:46:48;9.00;;;3.47;;
58412;SDS011;44209;52.952;6.790;2024-01-15T06:49:13;11.20;;;2.30;;
58412;SDS011;44209;52.952;6.790;2024-01-15T06:51:39;10.07;;;2.20;;
58412;SDS011;44209;52.952;6.790;2024-01-15T06:54:05;12.37;;;2.63;;
58412;SDS011;44209;52.952;6.790;2024-01-15T06:56:31;11.57;;;2.40;;
58412;SDS011;44209;52.952;6.790;2024-01-15T06:58:57;9.80;;;2.40;;
58412;SDS011;44209;52.952;6.790;2024-01-15T07:01:23;15.83;;;2.47;;
58412;SDS011;44209;52.952;6.790;2024-01-15T07:03:49;9.10;;;2.53;;
58412;SDS011;44209;52.952;6.790;2024-01-15T07:06:14;10.73;;;3.00;;
58412;SDS011;44209;52.952;6.790;2024-01-15T07:08:41;16.00;;;2.80;;
58412;SDS011;44209;52.952;6.790;2024-01-15T07:11:07;12.77;;;2.90;;
58412;SDS011;44209;52.952;6.790;2024-01-15T07:13:33;10.17;;;2.83;;
58412;SDS011;44209;52.952;6.790;2024-01-15T07:15:59;13.60;;;2.83;;
58412;SDS011;44209;52.952;6.790;2024-01-15T07:18:25;15.57;;;3.37;;
58412;SDS011;44209;52.952;6.790;2024-01-15T07:20:50;14.10;;;2.90;;
58412;SDS011;44209;52.952;6.790;2024-01-15T07:23:16;12.27;;;2.90;;
58412;SDS011;44209;52.952;6.790;2024-01-15T07:25:42;11.50;;;2.83;;
58412;SDS011;44209;52.952;6.790;2024-01-15T07:28:08;11.43;;;2.53;;
58412;SDS011;44209;52.952;6.790;2024-01-15T07:30:34;13.50;;;3.13;;
58412;SDS011;44209;52.952;6.790;2024-01-15T07:33:00;13.90;;;3.00;;
58412;SDS011;44209;52.952;6.790;2024-01-15T07:35:26;10.37;;;2.60;;
58412;SDS011;44209;52.952;6.790;2024-01-15T07:37:52;12.30;;;2.80;;
58412;SDS011;44209;52.952;6.790;2024-01-15T07:40:17;14.43;;;3.50;;
58412;SDS011;44209;52.952;6.790;2024-01-15T07:42:43;12.33;;;2.63;;
58412;SDS011;44209;52.952;6.790;2024-01-15T07:45:10;11.60;;;2.70;;
58412;SDS011;44209;52.952;6.790;2024-01-15T07:47:36;13.90;;;2.70;;
58412;SDS011;44209;52.952;6.790;2024-01-15T07:50:01;11.30;;;2.83;;
58412;SDS011;44209;52.952;6.790;2024-01-15T07:52:27;18.33;;;3.27;;
58412;SDS011;44209;52.952;6.790;2024-01-15T07:54:53;13.07;;;3.00;;
58412;SDS011;44209;52.952;6.790;2024-01-15T07:57:20;15.47;;;2.80;;
58412;SDS011;44209;52.952;6.790;2024-01-15T07:59:45;9.63;;;2.53;;
58412;SDS011;44209;52.952;6.790;2024-01-15T08:02:11;13.57;;;2.50;;
58412;SDS011;44209;52.952;6.790;2024-01-15T08:04:37;15.97;;;3.10;;
58412;SDS011;44209;52.952;6.790;2024-01-15T08:07:03;15.67;;;3.07;;
58412;SDS011;44209;52.952;6.790;2024-01-15T08:09:30;11.73;;;3.03;;
58412;SDS011;44209;52.952;6.790;2024-01-15T08:11:56;11.00;;;2.70;;
58412;SDS011;44209;52.952;6.790;2024-01-15T08:14:22;11.20;;;2.80;;
58412;SDS011;44209;52.952;6.790;2024-01-15T08:16:48;14.57;;;2.63;;
58412;SDS011;44209;52.952;6.790;2024-01-15T08:19:13;9.93;;;2.50;;
58412;SDS011;44209;52.952;6.790;2024-01-15T08:21:39;15.40;;;2.70;;
58412;SDS011;44209;52.952;6.790;2024-01-15T08:24:05;10.80;;;2.53;;
58412;SDS011;44209;52.952;6.790;2024-01-15T08:26:31;14.50;;;2.57;;
58412;SDS011;44209;52.952;6.790;2024-01-15T08:28:57;11.87;;;2.40;;
58412;SDS011;44209;52.952;6.790;2024-01-15T08:31:23;11.63;;;3.07;;
58412;SDS011;44209;52.952;6.790;2024-01-15T08:33:49;11.07;;;3.00;;
58412;SDS011;44209;52.952;6.790;2024-01-15T08:36:15;10.93;;;2.70;;
58412;SDS011;44209;52.952;6.790;2024-01-15T08:38:41;12.17;;;3.37;;
58412;SDS011;44209;52.952;6.790;2024-01-15T08:41:07;12.60;;;2.87;;
58412;SDS011;44209;52.952;6.790;2024-01-15T08:43:34;9.87;;;2.53;;
58412;SDS011;44209;52.952;6.790;2024-01-15T08:46:00;13.80;;;2.73;;
58412;SDS011;44209;52.952;6.790;2024-01-15T08:48:26;14.87;;;3.10;;
58412;SDS011;44209;52.952;6.790;2024-01-15T08:50:53;10.13;;;2.83;;
58412;SDS011;44209;52.952;6.790;2024-01-15T08:53:19;11.90;;;3.30;;
58412;SDS011;44209;52.952;6.790;2024-01-15T08:55:45;12.77;;;3.27;;
58412;SDS011;44209;52.952;6.790;2024-01-15T08:58:11;13.10;;;3.27;;
58412;SDS011;44209;52.952;6.790;2024-01-15T09:00:37;14.40;;;3.20;;
58412;SDS011;44209;52.952;6.790;2024-01-15T09:03:03;12.67;;;2.83;;
58412;SDS011;44209;52.952;6.790;2024-01-15T09:05:28;15.17;;;3.00;;
58412;SDS011;44209;52.952;6.790;2024-01-15T09:07:54;12.70;;;2.83;;
58412;SDS011;44209;52.952;6.790;2024-01-15T09:10:20;11.90;;;3.03;;
58412;SDS011;44209;52.952;6.790;2024-01-15T09:12:46;7.60;;;2.60;;
58412;SDS011;44209;52.952;6.790;2024-01-15T09:15:14;15.10;;;3.63;;
58412;SDS011;44209;52.952;6.790;2024-01-15T09:17:40;13.07;;;2.77;;
58412;SDS011;44209;52.952;6.790;2024-01-15T09:20:06;11.77;;;3.10;;
58412;SDS011;44209;52.952;6.790;2024-01-15T09:22:32;10.40;;;2.80;;
58412;SDS011;44209;52.952;6.790;2024-01-15T09:24:58;13.00;;;3.23;;
58412;SDS011;44209;52.952;6.790;2024-01-15T09:27:24;11.97;;;2.77;;
58412;SDS011;44209;52.952;6.790;2024-01-15T09:29:53;4.67;;;1.90;;
58412;SDS011;44209;52.952;6.790;2024-01-15T09:32:18;7.77;;;2.40;;
58412;SDS011;44209;52.952;6.790;2024-01-15T09:34:47;11.17;;;2.43;;
58412;SDS011;44209;52.952;6.790;2024-01-15T09:37:16;9.23;;;2.37;;
58412;SDS011;44209;52.952;6.790;2024-01-15T09:39:41;6.07;;;1.70;;
58412;SDS011;44209;52.952;6.790;2024-01-15T09:42:07;8.67;;;2.00;;
58412;SDS011;44209;52.952;6.790;2024-01-15T09:44:33;9.27;;;2.33;;
58412;SDS011;44209;52.952;6.790;2024-01-15T09:47:00;11.10;;;2.20;;
58412;SDS011;44209;52.952;6.790;2024-01-15T09:49:26;7.37;;;2.20;;
58412;SDS011;44209;52.952;6.790;2024-01-15T09:51:52;10.13;;;2.40;;
58412;SDS011;44209;52.952;6.790;2024-01-15T09:54:19;10.57;;;2.40;;
58412;SDS011;44209;52.952;6.790;2024-01-15T09:56:46;7.90;;;2.30;;
58412;SDS011;44209;52.952;6.790;2024-01-15T09:59:14;11.10;;;2.63;;
58412;SDS011;44209;52.952;6.790;2024-01-15T10:01:42;9.17;;;2.50;;
58412;SDS011;44209;52.952;6.790;2024-01-15T10:04:10;13.10;;;2.73;;
58412;SDS011;44209;52.952;6.790;2024-01-15T10:06:38;10.10;;;2.10;;
58412;SDS011;44209;52.952;6.790;2024-01-15T10:09:06;8.97;;;2.83;;
58412;SDS011;44209;52.952;6.790;2024-01-15T10:11:33;10.43;;;2.87;;
58412;SDS011;44209;52.952;6.790;2024-01-15T10:13:58;12.87;;;2.73;;
58412;SDS011;44209;52.952;6.790;2024-01-15T10:16:25;7.73;;;2.67;;
58412;SDS011;44209;52.952;6.790;2024-01-15T10:18:51;9.83;;;2.43;;
58412;SDS011;44209;52.952;6.790;2024-01-15T10:21:17;15.53;;;2.83;;
58412;SDS011;44209;52.952;6.790;2024-01-15T10:23:43;15.00;;;2.70;;
58412;SDS011;44209;52.952;6.790;2024-01-15T10:26:09;13.83;;;3.53;;
58412;SDS011;44209;52.952;6.790;2024-01-15T10:28:37;9.00;;;2.67;;
58412;SDS011;44209;52.952;6.790;2024-01-15T10:31:03;9.63;;;2.80;;
58412;SDS011;44209;52.952;6.790;2024-01-15T10:33:29;12.97;;;3.07;;
58412;SDS011;44209;52.952;6.790;2024-01-15T10:35:59;11.70;;;2.60;;
58412;SDS011;44209;52.952;6.790;2024-01-15T10:38:25;10.63;;;2.67;;
58412;SDS011;44209;52.952;6.790;2024-01-15T10:40:52;8.03;;;2.13;;
58412;SDS011;44209;52.952;6.790;2024-01-15T10:43:19;12.50;;;2.70;;
58412;SDS011;44209;52.952;6.790;2024-01-15T10:45:45;10.37;;;3.00;;
58412;SDS011;44209;52.952;6.790;2024-01-15T10:48:12;9.13;;;2.67;;
58412;SDS011;44209;52.952;6.790;2024-01-15T10:50:39;8.57;;;2.23;;
58412;SDS011;44209;52.952;6.790;2024-01-15T10:53:05;11.00;;;2.63;;
58412;SDS011;44209;52.952;6.790;2024-01-15T10:55:32;10.67;;;2.70;;
58412;SDS011;44209;52.952;6.790;2024-01-15T10:57:59;12.83;;;2.37;;
58412;SDS011;44209;52.952;6.790;2024-01-15T11:00:26;8.90;;;2.10;;
58412;SDS011;44209;52.952;6.790;2024-01-15T11:02:52;9.10;;;2.33;;
58412;SDS011;44209;52.952;6.790;2024-01-15T11:05:21;6.53;;;2.00;;
58412;SDS011;44209;52.952;6.790;2024-01-15T11:07:50;8.03;;;2.23;;
58412;SDS011;44209;52.952;6.790;2024-01-15T11:13:14;9.30;;;1.93;;
58412;SDS011;44209;52.952;6.790;2024-01-15T11:15:58;6.10;;;2.17;;
58412;SDS011;44209;52.952;6.790;2024-01-15T11:18:26;7.43;;;2.00;;
58412;SDS011;44209;52.952;6.790;2024-01-15T11:23:44;4.40;;;1.33;;
58412;SDS011;44209;52.952;6.790;2024-01-15T11:26:26;6.27;;;1.40;;
58412;SDS011;44209;52.952;6.790;2024-01-15T11:28:57;5.20;;;1.40;;
58412;SDS011;44209;52.952;6.790;2024-01-15T11:34:06;7.63;;;1.50;;
58412;SDS011;44209;52.952;6.790;2024-01-15T11:42:00;5.40;;;1.37;;
58412;SDS011;44209;52.952;6.790;2024-01-15T11:44:28;6.23;;;1.70;;
58412;SDS011;44209;52.952;6.790;2024-01-15T11:46:58;6.00;;;1.33;;
58412;SDS011;44209;52.952;6.790;2024-01-15T11:52:11;5.57;;;1.00;;
58412;SDS011;44209;52.952;6.790;2024-01-15T11:54:41;2.47;;;0.83;;
58412;SDS011;44209;52.952;6.790;2024-01-15T11:57:16;1.50;;;0.80;;
58412;SDS011;44209;52.952;6.790;2024-01-15T11:59:49;3.80;;;0.97;;
58412;SDS011;44209;52.952;6.790;2024-01-15T12:02:15;2.77;;;0.77;;
58412;SDS011;44209;52.952;6.790;2024-01-15T12:04:40;3.57;;;1.27;;
58412;SDS011;44209;52.952;6.790;2024-01-15T12:07:06;3.07;;;1.63;;
58412;SDS011;44209;52.952;6.790;2024-01-15T12:09:32;1.63;;;0.70;;
58412;SDS011;44209;52.952;6.790;2024-01-15T12:12:00;2.13;;;0.90;;
58412;SDS011;44209;52.952;6.790;2024-01-15T12:14:32;3.10;;;0.90;;
58412;SDS011;44209;52.952;6.790;2024-01-15T12:16:59;2.30;;;0.80;;
58412;SDS011;44209;52.952;6.790;2024-01-15T12:19:25;2.17;;;0.80;;
58412;SDS011;44209;52.952;6.790;2024-01-15T12:21:51;1.67;;;0.80;;
58412;SDS011;44209;52.952;6.790;2024-01-15T12:24:17;3.20;;;0.80;;
58412;SDS011;44209;52.952;6.790;2024-01-15T12:26:43;1.60;;;0.70;;
58412;SDS011;44209;52.952;6.790;2024-01-15T12:29:10;3.63;;;0.90;;
58412;SDS011;44209;52.952;6.790;2024-01-15T12:31:36;1.87;;;0.70;;
58412;SDS011;44209;52.952;6.790;2024-01-15T12:34:02;4.00;;;1.00;;
58412;SDS011;44209;52.952;6.790;2024-01-15T12:36:30;4.90;;;1.10;;
58412;SDS011;44209;52.952;6.790;2024-01-15T12:38:59;2.23;;;1.03;;
58412;SDS011;44209;52.952;6.790;2024-01-15T12:41:25;3.77;;;1.30;;
58412;SDS011;44209;52.952;6.790;2024-01-15T12:43:51;6.03;;;1.50;;
58412;SDS011;44209;52.952;6.790;2024-01-15T12:46:17;2.23;;;1.50;;
58412;SDS011;44209;52.952;6.790;2024-01-15T12:48:44;4.43;;;1.40;;
58412;SDS011;44209;52.952;6.790;2024-01-15T12:51:10;3.97;;;1.30;;
58412;SDS011;44209;52.952;6.790;2024-01-15T12:53:35;2.10;;;1.30;;
58412;SDS011;44209;52.952;6.790;2024-01-15T12:56:01;5.90;;;1.50;;
58412;SDS011;44209;52.952;6.790;2024-01-15T12:58:27;4.23;;;1.53;;
58412;SDS011;44209;52.952;6.790;2024-01-15T13:00:53;3.57;;;1.30;;
58412;SDS011;44209;52.952;6.790;2024-01-15T13:03:19;5.60;;;1.50;;
58412;SDS011;44209;52.952;6.790;2024-01-15T13:05:45;6.40;;;1.70;;
58412;SDS011;44209;52.952;6.790;2024-01-15T13:08:10;5.93;;;1.90;;
58412;SDS011;44209;52.952;6.790;2024-01-15T13:10:36;6.17;;;1.90;;
58412;SDS011;44209;52.952;6.790;2024-01-15T13:13:02;6.37;;;1.93;;
58412;SDS011;44209;52.952;6.790;2024-01-15T13:15:28;8.33;;;2.33;;
58412;SDS011;44209;52.952;6.790;2024-01-15T13:17:53;8.37;;;2.07;;
58412;SDS011;44209;52.952;6.790;2024-01-15T13:20:19;7.37;;;2.20;;
58412;SDS011;44209;52.952;6.790;2024-01-15T13:22:45;10.77;;;1.90;;
58412;SDS011;44209;52.952;6.790;2024-01-15T13:25:11;8.70;;;2.23;;
58412;SDS011;44209;52.952;6.790;2024-01-15T13:27:37;7.50;;;1.90;;
58412;SDS011;44209;52.952;6.790;2024-01-15T13:30:04;5.83;;;1.80;;
58412;SDS011;44209;52.952;6.790;2024-01-15T13:32:31;9.70;;;2.40;;
58412;SDS011;44209;52.952;6.790;2024-01-15T13:34:57;8.47;;;2.10;;
58412;SDS011;44209;52.952;6.790;2024-01-15T13:37:23;7.43;;;1.90;;
58412;SDS011;44209;52.952;6.790;2024-01-15T13:39:52;9.40;;;2.10;;
58412;SDS011;44209;52.952;6.790;2024-01-15T13:42:18;8.57;;;2.47;;
58412;SDS011;44209;52.952;6.790;2024-01-15T13:44:46;8.87;;;2.10;;
58412;SDS011;44209;52.952;6.790;2024-01-15T13:47:12;7.53;;;1.70;;
58412;SDS011;44209;52.952;6.790;2024-01-15T13:49:38;4.07;;;1.80;;
58412;SDS011;44209;52.952;6.790;2024-01-15T13:52:04;8.67;;;2.20;;
58412;SDS011;44209;52.952;6.790;2024-01-15T13:54:30;4.00;;;1.40;;
58412;SDS011;44209;52.952;6.790;2024-01-15T13:56:56;7.70;;;1.80;;
58412;SDS011;44209;52.952;6.790;2024-01-15T13:59:22;5.90;;;1.53;;
58412;SDS011;44209;52.952;6.790;2024-01-15T14:01:48;5.43;;;1.40;;
58412;SDS011;44209;52.952;6.790;2024-01-15T14:04:13;8.20;;;1.57;;
58412;SDS011;44209;52.952;6.790;2024-01-15T14:06:39;4.27;;;1.40;;
58412;SDS011;44209;52.952;6.790;2024-01-15T14:09:05;6.40;;;1.50;;
58412;SDS011;44209;52.952;6.790;2024-01-15T14:11:35;7.13;;;1.40;;
58412;SDS011;44209;52.952;6.790;2024-01-15T14:14:01;4.40;;;1.83;;
58412;SDS011;44209;52.952;6.790;2024-01-15T14:16:27;4.17;;;1.40;;
58412;SDS011;44209;52.952;6.790;2024-01-15T14:18:53;5.93;;;1.83;;
58412;SDS011;44209;52.952;6.790;2024-01-15T14:21:19;7.53;;;1.73;;
58412;SDS011;44209;52.952;6.790;2024-01-15T14:23:44;11.47;;;1.70;;
58412;SDS011;44209;52.952;6.790;2024-01-15T14:26:10;5.83;;;1.80;;
58412;SDS011;44209;52.952;6.790;2024-01-15T14:28:36;6.87;;;2.10;;
58412;SDS011;44209;52.952;6.790;2024-01-15T14:31:01;9.90;;;2.47;;
58412;SDS011;44209;52.952;6.790;2024-01-15T14:33:28;8.13;;;1.77;;
58412;SDS011;44209;52.952;6.790;2024-01-15T14:35:53;9.73;;;2.13;;
58412;SDS011;44209;52.952;6.790;2024-01-15T14:38:19;8.40;;;1.97;;
58412;SDS011;44209;52.952;6.790;2024-01-15T14:40:45;8.97;;;2.50;;
58412;SDS011;44209;52.952;6.790;2024-01-15T14:43:10;9.87;;;2.20;;
58412;SDS011;44209;52.952;6.790;2024-01-15T14:45:36;9.57;;;2.00;;
58412;SDS011;44209;52.952;6.790;2024-01-15T14:48:02;9.87;;;2.20;;
58412;SDS011;44209;52.952;6.790;2024-01-15T14:50:28;9.17;;;2.20;;